Time;durP1;ratioP1;P1;durP2;ratioP2;P2;SDS_P1;SDS_P2;PMS_P1;PMS_P2;Temp;Humidity;BMP_temperature;BMP_pressure;BME280_temperature;BME280_humidity;BME280_pressure;Samples;Min_cycle;Max_cycle;Signal;HPM_P1;HPM_P2
2023/09/23 00:01:09;;;;;;;2.17;1.27;;;;;;;23.20;55.39;99117.72;5345832;26;33435;-80
2023/09/23 00:03:37;;;;;;;0.90;0.50;;;;;;;23.13;55.71;99122.09;5344665;26;33262;-80
2023/09/23 00:06:05;;;;;;;1.15;0.55;;;;;;;23.23;55.23;99128.19;5363850;26;33520;-80
2023/09/23 00:08:33;;;;;;;0.45;0.45;;;;;;;23.06;56.02;99129.12;5344865;26;33979;-80
2023/09/23 00:11:02;;;;;;;1.17;0.80;;;;;;;23.05;56.14;99126.63;5344526;26;32628;-80
2023/09/23 00:13:30;;;;;;;0.40;0.37;;;;;;;23.00;56.18;99127.94;5364197;26;34004;-80
2023/09/23 00:15:58;;;;;;;0.90;0.75;;;;;;;23.10;55.89;99130.50;5344855;26;34816;-80
2023/09/23 00:18:26;;;;;;;4.47;0.40;;;;;;;22.97;56.22;99124.72;5365355;26;34245;-80
2023/09/23 00:20:55;;;;;;;0.77;0.77;;;;;;;22.96;56.11;99115.81;5363592;26;33286;-80
2023/09/23 00:23:23;;;;;;;1.80;1.10;;;;;;;22.88;56.41;99109.50;5345133;26;33597;-80
2023/09/23 00:25:51;;;;;;;1.65;1.05;;;;;;;22.92;56.30;99102.84;5361699;26;34026;-80
2023/09/23 00:28:20;;;;;;;8.23;2.35;;;;;;;22.88;56.29;99106.81;5363791;26;34084;-80
2023/09/23 00:30:47;;;;;;;0.47;0.47;;;;;;;22.89;56.06;99124.72;5345667;26;33033;-80
2023/09/23 00:33:17;;;;;;;1.35;0.95;;;;;;;22.87;56.18;99119.44;5365129;26;34086;-81
2023/09/23 00:35:47;;;;;;;2.35;2.15;;;;;;;22.81;56.44;99121.94;5364084;26;33740;-80
2023/09/23 00:38:17;;;;;;;1.23;0.88;;;;;;;22.81;56.35;99130.03;5345309;26;33409;-81
2023/09/23 00:40:45;;;;;;;1.85;1.08;;;;;;;22.78;56.58;99130.34;5363650;26;33593;-80
2023/09/23 00:43:15;;;;;;;1.60;1.25;;;;;;;22.86;56.23;99125.00;5367276;26;32768;-80
2023/09/23 00:45:48;;;;;;;0.77;0.77;;;;;;;23.00;55.91;99124.41;5368023;26;33649;-80
2023/09/23 00:48:21;;;;;;;4.15;1.02;;;;;;;23.06;55.73;99123.75;5331019;26;34798;-80
2023/09/23 00:50:53;;;;;;;3.65;1.95;;;;;;;22.80;56.48;99118.41;5368623;26;34022;-80
2023/09/23 00:53:22;;;;;;;0.77;0.68;;;;;;;22.68;57.03;99125.91;5348356;26;34272;-80
2023/09/23 00:55:55;;;;;;;1.17;1.00;;;;;;;22.77;56.56;99128.66;5347707;26;34165;-80
2023/09/23 00:58:26;;;;;;;2.55;1.42;;;;;;;22.70;56.88;99132.00;5367546;26;33785;-80
2023/09/23 01:00:55;;;;;;;0.35;0.35;;;;;;;22.70;57.01;99125.78;5348363;26;34254;-80
2023/09/23 01:03:23;;;;;;;0.90;0.57;;;;;;;22.67;57.21;99134.16;5347863;26;34562;-80
2023/09/23 01:06:08;;;;;;;0.85;0.68;;;;;;;22.62;57.29;99126.56;5347971;26;32872;-80
2023/09/23 01:08:38;;;;;;;0.70;0.70;;;;;;;22.73;57.06;99134.34;5331454;26;33182;-80
2023/09/23 01:11:07;;;;;;;0.32;0.30;;;;;;;22.63;57.43;99149.78;5368023;26;33455;-79
2023/09/23 01:13:35;;;;;;;2.45;1.15;;;;;;;22.57;57.76;99145.03;5367690;26;34616;-79
2023/09/23 01:16:11;;;;;;;5.30;1.58;;;;;;;22.69;57.32;99157.22;5330624;26;32942;-79
2023/09/23 01:18:41;;;;;;;6.47;1.12;;;;;;;22.75;57.25;99159.28;5349841;26;33023;-80
2023/09/23 01:21:09;;;;;;;0.17;0.17;;;;;;;22.80;57.15;99155.25;5348173;26;33133;-79
2023/09/23 01:23:38;;;;;;;2.47;1.27;;;;;;;22.78;57.17;99157.25;5348901;26;32947;-79
2023/09/23 01:26:06;;;;;;;0.93;0.68;;;;;;;22.71;57.49;99157.91;5367345;26;34009;-79
2023/09/23 01:28:34;;;;;;;0.52;0.45;;;;;;;22.49;58.28;99153.06;5366602;26;34133;-79
2023/09/23 01:31:02;;;;;;;1.17;0.65;;;;;;;22.66;57.72;99160.22;5367390;26;34136;-79
2023/09/23 01:33:30;;;;;;;0.82;0.82;;;;;;;22.75;57.44;99164.66;5330383;26;33618;-79
2023/09/23 01:36:03;;;;;;;3.97;1.15;;;;;;;22.78;57.54;99162.63;5367500;26;34794;-79
2023/09/23 01:38:31;;;;;;;2.10;1.15;;;;;;;22.79;57.42;99167.88;5349993;26;33420;-80
2023/09/23 01:41:04;;;;;;;2.08;1.08;;;;;;;22.96;56.69;99160.72;5367252;26;33155;-80
2023/09/23 01:43:32;;;;;;;0.98;0.90;;;;;;;22.89;56.97;99162.41;5362325;26;33878;-80
2023/09/23 01:46:03;;;;;;;1.10;0.68;;;;;;;22.86;57.06;99163.53;5326197;26;32999;-80
2023/09/23 01:48:33;;;;;;;1.45;0.62;;;;;;;22.71;57.63;99173.22;5363510;26;35157;-80
2023/09/23 01:51:02;;;;;;;0.70;0.45;;;;;;;22.71;57.85;99176.75;5344413;26;34504;-79
2023/09/23 01:53:31;;;;;;;0.82;0.82;;;;;;;22.70;57.39;99183.13;5345133;26;33657;-80
2023/09/23 01:55:59;;;;;;;0.73;0.62;;;;;;;23.05;56.02;99175.91;5345249;26;33105;-80
2023/09/23 01:58:28;;;;;;;1.85;0.75;;;;;;;23.11;55.61;99175.25;5343654;26;34866;-79
2023/09/23 02:00:58;;;;;;;0.82;0.73;;;;;;;23.05;56.00;99181.31;5361117;26;34183;-79
2023/09/23 02:03:27;;;;;;;1.98;1.25;;;;;;;23.15;55.61;99183.88;5360987;26;33295;-79
2023/09/23 02:05:56;;;;;;;0.52;0.52;;;;;;;23.14;55.89;99185.72;5363469;26;34561;-80
2023/09/23 02:08:24;;;;;;;2.55;0.40;;;;;;;22.96;57.16;99195.72;5344979;26;33854;-80
2023/09/23 02:10:52;;;;;;;0.30;0.30;;;;;;;22.99;56.91;99190.03;5362581;26;33849;-80
2023/09/23 02:13:20;;;;;;;1.02;0.93;;;;;;;23.05;56.78;99189.38;5363367;26;34709;-81
2023/09/23 02:15:48;;;;;;;1.02;1.00;;;;;;;23.40;55.70;99191.00;5363108;26;33800;-80
2023/09/23 02:18:16;;;;;;;2.95;1.92;;;;;;;23.28;56.05;99196.88;5343340;26;34077;-79
2023/09/23 02:20:44;;;;;;;0.70;0.50;;;;;;;23.12;56.69;99198.53;5364519;26;33302;-79
2023/09/23 02:23:12;;;;;;;0.50;0.50;;;;;;;23.07;57.21;99187.34;5363177;26;33901;-79
2023/09/23 02:25:42;;;;;;;0.50;0.50;;;;;;;22.99;57.90;99192.72;5345019;26;33276;-80
2023/09/23 02:28:10;;;;;;;3.83;1.50;;;;;;;22.95;57.95;99202.13;5344833;26;34854;-79
2023/09/23 02:30:38;;;;;;;0.68;0.47;;;;;;;23.32;56.48;99198.25;5344808;26;33274;-80
2023/09/23 02:33:06;;;;;;;4.05;1.87;;;;;;;23.33;56.23;99205.31;5344405;26;34263;-80
2023/09/23 02:35:34;;;;;;;0.70;0.70;;;;;;;23.17;56.80;99223.13;5363605;26;34615;-80
2023/09/23 02:38:03;;;;;;;1.00;0.95;;;;;;;23.56;55.50;99221.75;5363129;26;33207;-80
2023/09/23 02:40:31;;;;;;;0.88;0.88;;;;;;;23.10;57.33;99232.81;5344170;26;32601;-79
2023/09/23 02:42:59;;;;;;;0.40;0.37;;;;;;;23.18;57.36;99224.78;5358761;26;197248;-80
2023/09/23 02:45:27;;;;;;;1.80;1.17;;;;;;;22.93;58.85;99226.53;5387229;26;34748;-80
2023/09/23 02:47:55;;;;;;;0.32;0.25;;;;;;;23.01;58.94;99233.78;5348167;26;33757;-81
2023/09/23 02:50:23;;;;;;;2.03;1.23;;;;;;;22.87;59.20;99239.72;5348930;26;33617;-80
2023/09/23 02:52:52;;;;;;;1.12;0.70;;;;;;;22.83;59.30;99246.44;5348644;26;33386;-80
2023/09/23 02:55:20;;;;;;;0.85;0.85;;;;;;;22.93;59.08;99241.81;5367414;26;36426;-80
2023/09/23 02:57:49;;;;;;;0.40;0.40;;;;;;;22.89;59.25;99235.94;5348697;26;33225;-80
2023/09/23 03:00:24;;;;;;;0.40;0.40;;;;;;;22.83;59.71;99233.81;5366538;26;33177;-80
2023/09/23 03:02:54;;;;;;;2.25;1.62;;;;;;;22.77;60.80;99228.25;5350179;26;33949;-80
2023/09/23 03:05:27;;;;;;;1.10;0.88;;;;;;;22.83;60.23;99220.34;5348945;26;34725;-80
2023/09/23 03:07:59;;;;;;;4.20;1.60;;;;;;;23.02;59.99;99230.09;5349618;26;33967;-80
2023/09/23 03:10:39;;;;;;;;;;;;;;;22.83;60.91;99235.66;5349904;26;34589;-81
2023/09/23 03:13:11;;;;;;;0.85;0.77;;;;;;;22.90;60.99;99237.59;5332891;26;33705;-80
2023/09/23 03:15:44;;;;;;;8.77;1.75;;;;;;;22.82;60.36;99233.97;5387059;26;34697;-81
2023/09/23 03:18:17;;;;;;;3.20;2.83;;;;;;;22.99;59.95;99233.13;5349545;26;35045;-81
2023/09/23 03:20:45;;;;;;;1.87;1.27;;;;;;;23.04;60.45;99233.47;5331208;26;32873;-81
2023/09/23 03:23:13;;;;;;;1.05;0.90;;;;;;;23.02;60.94;99230.09;5365075;26;33965;-81
2023/09/23 03:25:45;;;;;;;2.50;1.48;;;;;;;23.01;61.12;99228.41;5366809;26;33268;-82
2023/09/23 03:28:15;;;;;;;1.45;1.37;;;;;;;22.99;61.84;99214.28;5348073;26;33011;-81
2023/09/23 03:30:47;;;;;;;0.98;0.50;;;;;;;23.01;62.28;99212.25;5367578;26;33306;-82
2023/09/23 03:33:18;;;;;;;2.30;0.93;;;;;;;22.98;62.85;99212.59;5367058;26;33602;-81
2023/09/23 03:35:46;;;;;;;1.17;0.40;;;;;;;23.07;62.49;99216.97;5367703;26;33828;-82
2023/09/23 03:38:15;;;;;;;1.48;1.30;;;;;;;23.00;62.84;99211.41;5366434;26;33329;-81
2023/09/23 03:40:54;;;;;;;1.95;1.42;;;;;;;23.02;62.85;99200.47;5366978;26;33705;-81
2023/09/23 03:43:22;;;;;;;1.92;1.48;;;;;;;23.02;62.90;99202.31;5366363;26;34639;-81
2023/09/23 03:45:51;;;;;;;3.50;1.60;;;;;;;23.00;62.73;99215.94;5347161;26;33416;-80
2023/09/23 03:48:19;;;;;;;5.85;1.45;;;;;;;22.93;63.10;99220.28;5367284;26;34130;-81
2023/09/23 03:50:54;;;;;;;3.03;2.28;;;;;;;22.91;63.44;99223.13;5348468;26;34429;-80
2023/09/23 03:53:23;;;;;;;9.02;1.40;;;;;;;22.90;63.24;99221.47;5348689;26;33422;-81
2023/09/23 03:55:54;;;;;;;2.05;1.00;;;;;;;22.97;63.02;99222.50;5386733;26;34167;-81
2023/09/23 03:58:24;;;;;;;0.93;0.52;;;;;;;23.05;62.98;99237.00;5348620;26;33739;-80
2023/09/23 04:00:54;;;;;;;0.98;0.98;;;;;;;23.02;62.84;99240.84;5366578;26;33260;-80
2023/09/23 04:03:23;;;;;;;2.83;1.75;;;;;;;22.96;62.95;99244.19;5366408;26;33762;-80
2023/09/23 04:05:57;;;;;;;6.62;2.62;;;;;;;23.07;62.48;99245.75;5366921;26;33796;-80
2023/09/23 04:08:27;;;;;;;2.03;0.80;;;;;;;23.09;62.48;99241.91;5367026;26;33882;-80
2023/09/23 04:10:55;;;;;;;2.17;1.20;;;;;;;23.11;62.46;99239.91;5366458;26;33257;-80
2023/09/23 04:13:23;;;;;;;4.53;1.98;;;;;;;23.12;62.11;99244.31;5365403;26;34614;-79
2023/09/23 04:15:53;;;;;;;1.33;0.93;;;;;;;22.98;62.39;99256.50;5366762;26;34921;-80
2023/09/23 04:18:20;;;;;;;3.45;1.90;;;;;;;23.11;61.91;99258.75;5347310;26;34762;-80
2023/09/23 04:20:49;;;;;;;0.68;0.43;;;;;;;22.94;62.11;99254.28;5347477;26;33219;-80
2023/09/23 04:23:17;;;;;;;2.05;1.25;;;;;;;23.03;62.12;99253.34;5310878;26;35523;-80
2023/09/23 04:25:44;;;;;;;9.43;1.70;;;;;;;22.83;62.90;99251.81;5366398;26;33656;-80
2023/09/23 04:28:12;;;;;;;11.63;2.83;;;;;;;23.07;62.36;99249.28;5347560;26;33300;-80
2023/09/23 04:30:40;;;;;;;6.32;2.20;;;;;;;22.94;62.72;99251.59;5366675;26;33750;-80
2023/09/23 04:33:07;;;;;;;0.55;0.55;;;;;;;23.10;62.02;99250.84;5366529;26;33714;-80
2023/09/23 04:35:35;;;;;;;9.88;3.12;;;;;;;23.09;61.91;99255.38;5366850;26;33036;-80
2023/09/23 04:38:03;;;;;;;0.88;0.88;;;;;;;22.87;63.10;99250.50;5367194;26;33236;-79
2023/09/23 04:40:31;;;;;;;1.23;1.10;;;;;;;22.79;63.60;99258.50;5387851;26;33607;-80
2023/09/23 04:43:00;;;;;;;5.03;1.10;;;;;;;22.82;63.99;99261.75;5367996;26;33885;-80
2023/09/23 04:45:28;;;;;;;2.65;2.33;;;;;;;22.75;64.42;99258.00;5367012;26;34828;-80
2023/09/23 04:47:56;;;;;;;1.23;0.75;;;;;;;22.78;64.49;99259.53;5330522;26;34080;-80
2023/09/23 04:50:24;;;;;;;1.48;0.80;;;;;;;22.82;64.53;99256.34;5348476;26;32254;-80
2023/09/23 04:52:52;;;;;;;0.62;0.62;;;;;;;22.80;64.70;99258.38;5348985;26;34649;-80
2023/09/23 04:55:20;;;;;;;0.62;0.62;;;;;;;22.82;64.67;99259.06;5346892;26;33951;-79
2023/09/23 04:57:47;;;;;;;0.95;0.93;;;;;;;22.75;65.04;99263.41;5345745;26;34960;-79
2023/09/23 05:00:19;;;;;;;1.95;1.10;;;;;;;22.68;65.24;99265.84;5348078;26;33354;-80
2023/09/23 05:02:49;;;;;;;1.65;1.05;;;;;;;22.61;65.52;99259.44;5346079;26;33030;-80
2023/09/23 05:05:18;;;;;;;3.37;2.17;;;;;;;22.66;65.24;99272.41;5347410;26;34495;-79
2023/09/23 05:07:46;;;;;;;1.05;0.68;;;;;;;22.64;65.19;99277.09;5346509;26;33870;-80
2023/09/23 05:10:14;;;;;;;4.00;1.58;;;;;;;22.66;65.33;99283.19;5346013;26;33135;-80
2023/09/23 05:12:44;;;;;;;0.43;0.43;;;;;;;22.78;64.92;99291.81;5346560;26;33301;-80
2023/09/23 05:15:14;;;;;;;2.72;1.65;;;;;;;22.88;64.49;99300.63;5346501;26;34839;-80
2023/09/23 05:17:43;;;;;;;2.87;1.20;;;;;;;22.77;64.65;99303.59;5346768;26;33198;-80
2023/09/23 05:20:15;;;;;;;1.30;1.08;;;;;;;22.87;64.70;99297.09;5385452;26;32846;-80
2023/09/23 05:22:43;;;;;;;2.78;1.85;;;;;;;23.01;64.16;99298.41;5346121;26;34546;-80
2023/09/23 05:25:11;;;;;;;1.55;1.40;;;;;;;23.04;63.87;99300.78;5365176;26;33716;-80
2023/09/23 05:27:39;;;;;;;0.55;0.55;;;;;;;23.21;63.29;99316.03;5346296;26;33872;-80
2023/09/23 05:30:08;;;;;;;3.33;1.55;;;;;;;23.13;63.93;99324.09;5346069;26;33155;-79
2023/09/23 05:32:37;;;;;;;0.62;0.62;;;;;;;23.27;63.42;99327.19;5364560;26;33900;-79
2023/09/23 05:35:09;;;;;;;1.52;1.35;;;;;;;23.21;63.50;99342.12;5364593;26;33964;-80
2023/09/23 05:37:42;;;;;;;1.98;1.75;;;;;;;22.97;64.60;99345.50;5364870;26;34296;-79
2023/09/23 05:40:23;;;;;;;0.85;0.52;;;;;;;23.06;64.18;99357.19;5346312;26;33364;-79
2023/09/23 05:42:52;;;;;;;3.45;0.20;;;;;;;22.91;64.70;99368.50;5348124;26;34285;-79
2023/09/23 05:45:24;;;;;;;2.03;1.15;;;;;;;23.03;64.17;99355.66;5364736;26;33672;-79
2023/09/23 05:47:53;;;;;;;0.25;0.10;;;;;;;22.77;65.28;99376.28;5365175;26;35133;-80
2023/09/23 05:50:23;;;;;;;2.28;0.98;;;;;;;22.83;65.42;99378.34;5365267;26;34211;-79
2023/09/23 05:52:52;;;;;;;0.90;0.65;;;;;;;22.66;65.76;99380.91;5364739;26;33840;-80
2023/09/23 05:55:20;;;;;;;1.08;1.05;;;;;;;22.75;65.58;99393.44;5365041;26;34797;-79
2023/09/23 05:57:49;;;;;;;3.00;1.77;;;;;;;22.73;65.89;99411.56;5364857;26;34438;-79
2023/09/23 06:00:17;;;;;;;1.65;1.40;;;;;;;23.08;64.45;99404.50;5345807;26;33348;-80
2023/09/23 06:02:47;;;;;;;6.97;1.37;;;;;;;22.88;65.87;99411.00;5364581;26;33623;-79
2023/09/23 06:05:15;;;;;;;3.55;1.17;;;;;;;23.04;65.19;99404.97;5365260;26;33922;-80
2023/09/23 06:07:43;;;;;;;0.45;0.45;;;;;;;22.84;65.89;99405.13;5364437;26;34893;-80
2023/09/23 06:10:11;;;;;;;1.00;0.95;;;;;;;23.04;65.43;99411.19;5364451;26;33908;-79
2023/09/23 06:12:39;;;;;;;0.88;0.88;;;;;;;23.18;64.95;99409.78;5363572;26;34627;-80
2023/09/23 06:15:10;;;;;;;1.42;1.33;;;;;;;23.08;65.58;99403.66;5365358;26;33738;-80
2023/09/23 06:17:39;;;;;;;1.20;1.10;;;;;;;23.15;65.39;99392.09;5346891;26;34313;-79
2023/09/23 06:20:07;;;;;;;0.40;0.40;;;;;;;23.06;65.64;99403.78;5384905;26;33344;-80
2023/09/23 06:22:35;;;;;;;1.67;1.58;;;;;;;23.16;64.02;99406.37;5346090;26;32829;-81
2023/09/23 06:25:03;;;;;;;0.25;0.25;;;;;;;22.44;66.63;99419.84;5346497;26;34459;-79
2023/09/23 06:27:32;;;;;;;0.82;0.80;;;;;;;22.45;66.31;99423.38;5345587;26;34041;-80
2023/09/23 06:29:59;;;;;;;1.10;0.73;;;;;;;22.41;65.92;99435.47;5344988;26;34433;-79
2023/09/23 06:32:27;;;;;;;0.85;0.68;;;;;;;22.31;65.48;99454.34;5385658;26;34382;-79
2023/09/23 06:34:55;;;;;;;0.68;0.68;;;;;;;22.27;64.60;99460.19;5364593;26;33238;-80
2023/09/23 06:37:23;;;;;;;1.42;1.12;;;;;;;22.21;64.11;99483.13;5345362;26;33898;-79
2023/09/23 06:39:51;;;;;;;1.77;0.98;;;;;;;22.06;65.14;99506.94;5365167;26;33232;-80
2023/09/23 06:42:19;;;;;;;1.98;1.08;;;;;;;21.94;65.81;99522.41;5364804;26;34184;-80
2023/09/23 06:44:46;;;;;;;1.45;0.90;;;;;;;22.12;64.98;99533.25;5346752;26;33370;-80
2023/09/23 06:47:14;;;;;;;0.77;0.75;;;;;;;22.02;65.40;99529.72;5365240;26;33713;-80
2023/09/23 06:49:42;;;;;;;1.12;1.02;;;;;;;22.05;65.13;99542.03;5346807;26;33713;-80
2023/09/23 06:52:10;;;;;;;0.40;0.40;;;;;;;21.90;66.15;99555.09;5346564;26;33504;-80
2023/09/23 06:54:38;;;;;;;5.93;0.98;;;;;;;21.79;67.12;99569.56;5365538;26;33671;-80
2023/09/23 06:57:06;;;;;;;0.98;0.95;;;;;;;22.28;65.49;99556.00;5346385;26;33390;-80
2023/09/23 06:59:34;;;;;;;0.75;0.60;;;;;;;22.16;65.69;99556.19;5365091;26;33945;-79
2023/09/23 07:02:02;;;;;;;0.90;0.82;;;;;;;21.85;66.91;99562.75;5346940;26;34524;-79
2023/09/23 07:04:30;;;;;;;9.55;1.95;;;;;;;21.80;67.43;99575.78;5346170;26;33433;-80
2023/09/23 07:06:57;;;;;;;5.50;0.70;;;;;;;21.99;66.80;99576.59;5346551;26;33460;-79
2023/09/23 07:09:25;;;;;;;1.48;1.35;;;;;;;22.16;66.19;99583.06;5345814;26;32906;-80
2023/09/23 07:11:53;;;;;;;0.85;0.65;;;;;;;22.21;66.40;99574.56;5346187;26;33094;-80
2023/09/23 07:14:21;;;;;;;0.47;0.47;;;;;;;21.91;67.13;99584.53;5385502;26;33727;-80
2023/09/23 07:16:49;;;;;;;0.65;0.65;;;;;;;21.94;67.59;99602.22;5365241;26;34756;-80
2023/09/23 07:19:17;;;;;;;1.15;1.05;;;;;;;22.21;66.50;99591.53;5346410;26;34480;-80
2023/09/23 07:21:44;;;;;;;10.18;2.05;;;;;;;22.03;67.12;99595.09;5344232;26;32770;-80
2023/09/23 07:24:12;;;;;;;0.80;0.80;;;;;;;21.97;67.40;99594.69;5346245;26;33597;-79
2023/09/23 07:26:40;;;;;;;0.77;0.30;;;;;;;21.79;68.49;99603.63;5363889;26;34179;-80
2023/09/23 07:29:08;;;;;;;2.97;1.00;;;;;;;21.82;68.05;99603.34;5344616;26;33444;-80
2023/09/23 07:31:36;;;;;;;0.25;0.25;;;;;;;21.85;67.89;99605.78;5345577;26;32894;-80
2023/09/23 07:34:06;;;;;;;1.10;1.02;;;;;;;21.77;68.38;99616.38;5364555;26;34404;-80
2023/09/23 07:36:33;;;;;;;1.83;1.17;;;;;;;21.88;67.63;99625.13;5363846;26;33964;-80
2023/09/23 07:39:02;;;;;;;1.12;0.73;;;;;;;21.74;67.11;99630.94;5345269;26;33493;-80
2023/09/23 07:41:29;;;;;;;1.27;0.60;;;;;;;22.07;66.02;99616.19;5362888;26;32813;-79
2023/09/23 07:43:57;;;;;;;0.30;0.30;;;;;;;22.07;66.01;99626.09;5344552;26;33626;-79
2023/09/23 07:46:25;;;;;;;3.12;0.57;;;;;;;21.93;66.25;99616.62;5345673;26;32945;-79
2023/09/23 07:48:52;;;;;;;1.45;0.65;;;;;;;22.04;65.65;99607.56;5364294;26;34096;-79
2023/09/23 07:51:20;;;;;;;13.55;0.85;;;;;;;22.14;65.04;99606.56;5364107;26;33881;-82
2023/09/23 07:53:51;;;;;;;0.37;0.37;;;;;;;21.99;65.45;99599.94;5345185;26;33117;-80
2023/09/23 07:56:18;;;;;;;0.50;0.45;;;;;;;21.97;65.16;99601.91;5364190;26;34842;-80
2023/09/23 07:58:50;;;;;;;0.30;0.30;;;;;;;21.82;65.37;99584.53;5346231;26;32573;-80
2023/09/23 08:01:17;;;;;;;0.60;0.35;;;;;;;21.70;65.37;99573.97;5364142;26;34008;-80
2023/09/23 08:03:45;;;;;;;4.22;0.65;;;;;;;21.64;65.56;99544.09;5363065;26;33298;-80
2023/09/23 08:06:13;;;;;;;0.35;0.35;;;;;;;21.69;66.17;99537.31;5364469;26;34148;-80
2023/09/23 08:08:41;;;;;;;2.20;1.12;;;;;;;21.70;65.55;99522.91;5345434;26;33244;-80
2023/09/23 08:11:09;;;;;;;0.40;0.40;;;;;;;21.36;66.79;99509.06;5346750;26;35303;-80
2023/09/23 08:13:37;;;;;;;0.30;0.30;;;;;;;21.51;67.00;99481.78;5365876;26;34642;-80
2023/09/23 08:16:05;;;;;;;2.45;1.33;;;;;;;21.45;66.95;99464.41;5364271;26;34577;-80
2023/09/23 08:18:33;;;;;;;0.35;0.35;;;;;;;21.24;68.39;99445.75;5347522;26;33503;-80
2023/09/23 08:21:01;;;;;;;0.35;0.35;;;;;;;21.09;70.12;99466.84;5346321;26;34066;-80
2023/09/23 08:23:28;;;;;;;0.82;0.43;;;;;;;21.35;69.42;99466.25;5365364;26;32905;-81
2023/09/23 08:25:56;;;;;;;0.30;0.30;;;;;;;21.43;68.78;99461.88;5346416;26;33988;-81
2023/09/23 08:28:24;;;;;;;0.52;0.52;;;;;;;21.44;69.08;99460.03;5346302;26;33524;-80
2023/09/23 08:30:52;;;;;;;4.10;1.42;;;;;;;21.46;69.39;99466.13;5346531;26;32629;-81
2023/09/23 08:33:20;;;;;;;1.02;0.88;;;;;;;21.78;68.19;99456.81;5365444;26;34017;-81
2023/09/23 08:35:55;;;;;;;3.20;1.70;;;;;;;21.62;68.87;99465.50;5364692;26;35425;-81
2023/09/23 08:38:29;;;;;;;0.77;0.60;;;;;;;21.61;69.85;99470.03;5349004;26;34302;-80
2023/09/23 08:40:57;;;;;;;0.73;0.47;;;;;;;21.80;69.54;99466.44;5346791;26;33536;-80
2023/09/23 08:43:38;;;;;;;3.78;0.93;;;;;;;21.98;68.77;99471.88;5328599;26;33061;-81
2023/09/23 08:46:07;;;;;;;1.17;1.17;;;;;;;22.04;69.28;99476.69;5347623;26;34173;-80
2023/09/23 08:48:35;;;;;;;0.62;0.62;;;;;;;22.01;69.77;99474.28;5365024;26;32746;-80
2023/09/23 08:51:06;;;;;;;0.77;0.77;;;;;;;22.07;69.57;99479.06;5365743;26;34221;-81
2023/09/23 08:53:34;;;;;;;1.85;0.90;;;;;;;22.21;69.08;99467.84;5365623;26;33574;-81
2023/09/23 08:56:02;;;;;;;0.52;0.52;;;;;;;22.27;69.00;99457.50;5366212;26;33886;-81
2023/09/23 08:58:30;;;;;;;0.75;0.75;;;;;;;22.21;69.54;99467.84;5328626;26;33811;-83
2023/09/23 09:01:01;;;;;;;4.73;1.80;;;;;;;22.27;70.00;99484.41;5346326;26;32708;-83
2023/09/23 09:03:30;;;;;;;2.17;0.70;;;;;;;22.27;71.36;99497.84;5364571;26;34012;-80
2023/09/23 09:05:59;;;;;;;0.85;0.60;;;;;;;22.41;70.65;99510.78;5327614;26;33291;-81
2023/09/23 09:08:27;;;;;;;0.82;0.80;;;;;;;22.59;70.07;99526.97;5365175;26;34430;-81
2023/09/23 09:10:58;;;;;;;3.03;1.50;;;;;;;22.63;70.18;99537.28;5364923;26;34794;-81
2023/09/23 09:13:26;;;;;;;1.17;1.17;;;;;;;22.50;69.91;99544.84;5365770;26;34206;-81
2023/09/23 09:15:54;;;;;;;1.12;0.93;;;;;;;22.69;69.23;99555.53;5345203;26;34034;-81
2023/09/23 09:18:22;;;;;;;1.50;1.37;;;;;;;22.95;68.41;99549.44;5346712;26;35036;-80
2023/09/23 09:20:49;;;;;;;1.52;1.40;;;;;;;22.69;68.83;99569.00;5365492;26;33676;-81
2023/09/23 09:23:17;;;;;;;1.12;0.80;;;;;;;22.87;67.76;99560.09;5327335;26;33001;-81
2023/09/23 09:25:47;;;;;;;3.90;1.40;;;;;;;22.80;68.39;99565.22;5364956;26;33840;-81
2023/09/23 09:28:18;;;;;;;0.45;0.45;;;;;;;23.05;67.51;99569.06;5384591;26;33321;-81
2023/09/23 09:30:54;;;;;;;2.58;2.10;;;;;;;22.89;67.85;99568.91;5346383;26;33083;-80
2023/09/23 09:33:26;;;;;;;2.15;1.25;;;;;;;22.84;68.60;99577.41;5346357;26;33315;-80
2023/09/23 09:35:57;;;;;;;0.70;0.68;;;;;;;22.55;69.27;99574.87;5365554;26;34604;-81
2023/09/23 09:38:25;;;;;;;0.80;0.77;;;;;;;22.59;69.21;99573.56;5365343;26;33315;-80
2023/09/23 09:41:04;;;;;;;4.30;0.88;;;;;;;22.89;68.31;99575.13;5365197;26;35548;-80
2023/09/23 09:43:33;;;;;;;0.93;0.93;;;;;;;22.89;68.60;99568.91;5346359;26;32972;-80
2023/09/23 09:46:08;;;;;;;1.33;1.23;;;;;;;22.88;68.09;99556.38;5365778;26;34331;-81
2023/09/23 09:48:38;;;;;;;18.10;2.80;;;;;;;22.99;67.93;99551.69;5366787;26;34047;-81
2023/09/23 09:51:07;;;;;;;2.33;1.80;;;;;;;23.29;68.05;99560.38;5347131;26;34153;-80
2023/09/23 09:53:36;;;;;;;1.67;1.08;;;;;;;23.41;67.96;99553.75;5365845;26;33637;-81
2023/09/23 09:56:05;;;;;;;1.58;1.45;;;;;;;23.45;67.62;99555.16;5346938;26;33186;-80
2023/09/23 09:58:41;;;;;;;2.60;1.08;;;;;;;23.40;65.75;99562.81;5347343;26;33242;-81
2023/09/23 10:01:12;;;;;;;2.70;1.00;;;;;;;23.43;65.85;99556.28;5365389;26;34452;-80
2023/09/23 10:03:42;;;;;;;;;;;;;;;23.99;64.93;99546.97;5347814;26;33184;-80
2023/09/23 10:06:18;;;;;;;0.77;0.50;;;;;;;24.12;64.50;99542.00;5347204;26;33359;-80
2023/09/23 10:08:48;;;;;;;1.37;0.82;;;;;;;24.37;64.30;99540.31;5345678;26;33465;-80
2023/09/23 10:11:16;;;;;;;0.32;0.32;;;;;;;24.90;61.55;99543.69;5365041;26;34006;-80
2023/09/23 10:13:44;;;;;;;0.35;0.35;;;;;;;24.75;62.08;99536.22;5365196;26;34057;-80
2023/09/23 10:16:19;;;;;;;2.95;1.20;;;;;;;24.87;61.05;99544.00;5365214;26;34423;-81
2023/09/23 10:18:59;;;;;;;1.37;0.73;;;;;;;24.62;60.23;99546.63;5328623;26;32702;-80
2023/09/23 10:21:30;;;;;;;0.88;0.88;;;;;;;24.10;61.64;99560.19;5347313;26;33218;-80
2023/09/23 10:24:02;;;;;;;5.50;0.93;;;;;;;24.31;61.17;99562.50;5365582;26;33253;-80
2023/09/23 10:26:30;;;;;;;1.45;1.15;;;;;;;24.06;62.01;99574.16;5364045;26;32774;-80
2023/09/23 10:29:00;;;;;;;1.25;0.90;;;;;;;24.09;62.65;99563.91;5365715;26;33618;-81
2023/09/23 10:31:30;;;;;;;4.20;0.68;;;;;;;24.17;62.20;99555.00;5346419;26;32810;-81
2023/09/23 10:34:06;;;;;;;2.45;0.90;;;;;;;24.12;61.10;99555.50;5328267;26;33466;-80
2023/09/23 10:36:36;;;;;;;0.25;0.25;;;;;;;23.76;61.64;99558.28;5365112;26;33813;-80
2023/09/23 10:39:07;;;;;;;2.95;1.45;;;;;;;23.58;62.18;99565.50;5346644;26;34674;-81
2023/09/23 10:41:36;;;;;;;0.68;0.55;;;;;;;23.89;62.40;99573.22;5365454;26;32785;-80
2023/09/23 10:44:04;;;;;;;1.73;1.17;;;;;;;23.97;61.78;99567.84;5346499;26;34164;-81
2023/09/23 10:46:32;;;;;;;3.37;1.45;;;;;;;24.14;60.68;99566.13;5346597;26;32916;-81
2023/09/23 10:49:01;;;;;;;1.50;0.70;;;;;;;23.65;62.58;99566.63;5346702;26;32408;-80
2023/09/23 10:51:29;;;;;;;0.68;0.43;;;;;;;23.62;62.10;99572.28;5346798;26;33191;-80
2023/09/23 10:53:57;;;;;;;1.33;0.98;;;;;;;23.09;62.67;99580.38;5365248;26;33688;-81
2023/09/23 10:56:26;;;;;;;1.52;1.02;;;;;;;23.21;62.86;99584.53;5364595;26;34899;-81
2023/09/23 10:58:54;;;;;;;1.50;0.68;;;;;;;23.48;62.42;99587.16;5366076;26;32957;-81
2023/09/23 11:01:22;;;;;;;0.55;0.55;;;;;;;23.36;62.90;99587.53;5365086;26;33272;-80
2023/09/23 11:03:51;;;;;;;0.90;0.90;;;;;;;23.03;63.38;99592.62;5328003;26;33074;-80
2023/09/23 11:06:19;;;;;;;1.45;1.35;;;;;;;23.31;63.03;99608.69;5364835;26;34140;-80
2023/09/23 11:08:49;;;;;;;0.43;0.43;;;;;;;23.00;62.74;99617.16;5346530;26;32736;-80
2023/09/23 11:11:17;;;;;;;0.85;0.68;;;;;;;23.05;61.51;99628.31;5365136;26;34087;-80
2023/09/23 11:13:45;;;;;;;0.57;0.57;;;;;;;23.12;61.72;99618.63;5346869;26;35024;-80
2023/09/23 11:16:13;;;;;;;0.93;0.93;;;;;;;23.00;62.50;99619.84;5346589;26;33929;-80
2023/09/23 11:18:40;;;;;;;1.67;1.02;;;;;;;23.02;62.36;99627.75;5346816;26;33635;-80
2023/09/23 11:21:07;;;;;;;0.60;0.60;;;;;;;23.29;61.80;99625.03;5346453;26;32946;-80
2023/09/23 11:23:35;;;;;;;0.25;0.22;;;;;;;23.34;60.35;99633.50;5346061;26;34652;-81
2023/09/23 11:26:03;;;;;;;0.52;0.47;;;;;;;23.09;60.64;99629.72;5364972;26;33128;-80
2023/09/23 11:28:31;;;;;;;1.12;0.60;;;;;;;23.17;60.64;99610.94;5346407;26;33365;-81
2023/09/23 11:30:59;;;;;;;0.68;0.43;;;;;;;23.48;60.71;99613.25;5365347;26;34478;-80
2023/09/23 11:33:26;;;;;;;1.48;0.90;;;;;;;23.85;58.70;99609.56;5364861;26;34820;-80
2023/09/23 11:35:57;;;;;;;0.50;0.50;;;;;;;23.83;58.20;99619.66;5364455;26;34691;-80
2023/09/23 11:38:25;;;;;;;0.22;0.22;;;;;;;23.27;59.45;99616.28;5347639;26;33010;-81
2023/09/23 11:40:54;;;;;;;1.17;1.00;;;;;;;23.55;59.02;99618.88;5364367;26;33663;-80
2023/09/23 11:43:22;;;;;;;0.40;0.40;;;;;;;23.23;59.76;99613.03;5346519;26;33028;-80